Time;durP1;ratioP1;P1;durP2;ratioP2;P2;SDS_P1;SDS_P2;PMS_P1;PMS_P2;Temp;Humidity;BMP_temperature;BMP_pressure;BME280_temperature;BME280_humidity;BME280_pressure;Samples;Min_cycle;Max_cycle;Signal;HPM_P1;HPM_P2
2022/03/24 00:01:16;;;;;;;30.73;20.73;;;11.20;88.80;;;;;;4995023;28;20214;-32
2022/03/24 00:03:46;;;;;;;29.40;20.77;;;11.20;88.80;;;;;;4999583;28;20209;-32
2022/03/24 00:06:13;;;;;;;33.80;21.17;;;11.20;88.80;;;;;;4994820;28;20202;-32
2022/03/24 00:08:43;;;;;;;31.93;21.90;;;11.20;89.00;;;;;;4987729;28;20697;-32
2022/03/24 00:11:12;;;;;;;30.30;21.00;;;11.10;88.90;;;;;;5000007;28;20214;-33
2022/03/24 00:13:43;;;;;;;31.80;21.80;;;11.10;88.90;;;;;;4993607;28;20298;-32
2022/03/24 00:16:15;;;;;;;29.43;21.77;;;11.00;89.00;;;;;;5001097;28;20198;-32
2022/03/24 00:18:43;;;;;;;32.03;22.20;;;11.00;89.00;;;;;;4994347;28;20261;-33
2022/03/24 00:21:11;;;;;;;31.97;22.03;;;11.00;89.00;;;;;;4996917;28;20305;-33
2022/03/24 00:23:43;;;;;;;31.63;22.67;;;11.00;89.00;;;;;;4993263;28;20213;-33
2022/03/24 00:26:10;;;;;;;32.67;22.13;;;10.90;88.90;;;;;;4993439;28;20280;-33
2022/03/24 00:28:37;;;;;;;34.63;22.60;;;10.90;88.90;;;;;;5003844;28;20691;-32
2022/03/24 00:31:05;;;;;;;32.10;22.37;;;10.80;88.90;;;;;;4990440;28;20199;-32
2022/03/24 00:33:32;;;;;;;30.20;21.70;;;10.80;89.00;;;;;;4991112;28;20214;-32
2022/03/24 00:35:59;;;;;;;33.97;21.23;;;10.80;89.00;;;;;;4991695;28;20214;-32
2022/03/24 00:38:27;;;;;;;32.57;22.50;;;10.70;88.90;;;;;;5004478;28;20210;-32
2022/03/24 00:40:56;;;;;;;32.13;21.60;;;10.70;88.90;;;;;;4996317;28;20329;-32
2022/03/24 00:43:26;;;;;;;31.27;21.60;;;10.70;88.90;;;;;;5004900;28;20213;-32
2022/03/24 00:46:02;;;;;;;30.10;21.97;;;10.60;88.90;;;;;;5002797;28;20271;-32
2022/03/24 00:48:34;;;;;;;33.37;22.40;;;10.60;89.10;;;;;;5001900;28;20805;-33
2022/03/24 00:51:03;;;;;;;32.60;22.53;;;10.60;88.90;;;;;;5004729;28;20628;-33
2022/03/24 00:53:32;;;;;;;33.37;21.97;;;10.50;88.90;;;;;;5005553;28;20213;-33
2022/03/24 00:56:03;;;;;;;31.97;22.97;;;10.50;88.90;;;;;;5008410;28;20193;-33
2022/03/24 00:58:32;;;;;;;31.60;23.53;;;10.50;88.90;;;;;;4998505;28;20293;-33
2022/03/24 01:01:03;;;;;;;33.60;23.47;;;10.50;89.00;;;;;;4994876;28;20260;-33
2022/03/24 01:03:36;;;;;;;33.63;23.03;;;10.40;88.80;;;;;;4997077;28;20202;-33
2022/03/24 01:06:07;;;;;;;33.63;22.70;;;10.40;88.90;;;;;;5002328;28;20210;-33
2022/03/24 01:08:37;;;;;;;33.70;23.57;;;10.30;89.00;;;;;;4997343;28;20206;-36
2022/03/24 01:11:07;;;;;;;30.33;22.70;;;10.30;89.00;;;;;;5001128;28;20272;-34
2022/03/24 01:13:43;;;;;;;32.90;23.33;;;10.30;89.00;;;;;;4993345;28;20221;-33
2022/03/24 01:16:12;;;;;;;31.20;22.47;;;10.20;89.00;;;;;;5004298;28;20212;-34
2022/03/24 01:18:40;;;;;;;30.70;21.40;;;10.20;88.80;;;;;;5000221;28;20240;-34
2022/03/24 01:21:11;;;;;;;30.40;22.17;;;10.20;88.90;;;;;;5002905;28;20209;-34
2022/03/24 01:23:41;;;;;;;31.13;21.90;;;10.10;89.00;;;;;;5001315;28;20639;-34
2022/03/24 01:26:11;;;;;;;31.83;23.03;;;10.10;88.90;;;;;;4991803;28;20240;-34
2022/03/24 01:28:44;;;;;;;33.13;23.20;;;10.10;88.90;;;;;;4992975;28;20241;-34
2022/03/24 01:31:16;;;;;;;36.33;22.57;;;10.10;89.00;;;;;;5019452;28;20212;-34
2022/03/24 01:33:47;;;;;;;35.17;22.33;;;10.00;88.50;;;;;;5002885;28;20193;-34
2022/03/24 01:36:18;;;;;;;37.33;22.83;;;10.00;88.90;;;;;;4990383;28;20202;-34
2022/03/24 01:38:46;;;;;;;34.37;23.53;;;9.90;90.00;;;;;;4992681;28;20245;-34
2022/03/24 01:41:19;;;;;;;37.07;23.47;;;9.90;90.00;;;;;;5005688;28;20229;-33
2022/03/24 01:43:47;;;;;;;29.90;22.10;;;9.80;90.00;;;;;;5000039;28;20208;-35
2022/03/24 01:46:22;;;;;;;37.00;22.87;;;9.80;90.00;;;;;;4995484;28;20562;-34
2022/03/24 01:48:50;;;;;;;32.27;22.50;;;9.80;90.10;;;;;;4994082;28;20284;-34
2022/03/24 01:51:18;;;;;;;32.63;22.57;;;9.80;90.00;;;;;;4992196;28;20203;-35
2022/03/24 01:53:45;;;;;;;37.80;22.90;;;9.70;90.00;;;;;;5002701;28;20328;-33
2022/03/24 01:56:13;;;;;;;34.07;23.47;;;9.70;90.00;;;;;;5002211;28;20224;-33
2022/03/24 01:58:47;;;;;;;32.33;23.33;;;9.60;90.00;;;;;;4995568;28;20241;-34
2022/03/24 02:01:37;;;;;;;34.40;23.57;;;9.60;90.00;;;;;;4994052;28;20696;-34
2022/03/24 02:04:08;;;;;;;36.80;23.40;;;9.60;90.20;;;;;;4998536;28;20317;-34
2022/03/24 02:06:43;;;;;;;33.60;22.70;;;9.60;90.00;;;;;;4995260;28;20198;-35
2022/03/24 02:09:12;;;;;;;29.87;21.70;;;9.50;90.00;;;;;;5003134;28;20197;-33
2022/03/24 02:11:42;;;;;;;34.27;21.90;;;9.50;90.00;;;;;;4997688;28;20213;-33
2022/03/24 02:14:12;;;;;;;37.33;22.33;;;9.50;90.10;;;;;;4996212;28;20732;-34
2022/03/24 02:16:40;;;;;;;31.87;22.30;;;9.40;90.00;;;;;;4999095;28;20205;-34
2022/03/24 02:19:12;;;;;;;30.33;21.90;;;9.40;90.10;;;;;;4997955;28;20658;-33
2022/03/24 02:21:43;;;;;;;31.10;21.43;;;9.40;90.10;;;;;;4997647;28;20198;-33
2022/03/24 02:24:14;;;;;;;32.77;21.50;;;9.30;90.00;;;;;;4997209;28;20209;-34
2022/03/24 02:26:45;;;;;;;31.13;21.43;;;9.30;90.10;;;;;;4993188;28;20217;-34
2022/03/24 02:29:18;;;;;;;31.53;21.63;;;9.30;90.10;;;;;;5000228;28;20206;-33
2022/03/24 02:31:50;;;;;;;33.33;22.00;;;9.30;90.00;;;;;;4993763;28;20229;-34
2022/03/24 02:34:40;;;;;;;31.20;22.33;;;9.20;90.10;;;;;;5003391;28;20217;-34
2022/03/24 02:37:25;;;;;;;35.40;22.57;;;9.20;90.10;;;;;;4993303;28;20240;-33
2022/03/24 02:39:57;;;;;;;32.87;21.37;;;9.10;90.20;;;;;;4999214;28;20759;-33
2022/03/24 02:42:30;;;;;;;30.60;21.53;;;9.10;90.20;;;;;;5001327;28;20604;-33
2022/03/24 02:45:05;;;;;;;31.90;20.30;;;9.00;90.10;;;;;;4998863;28;20212;-33
2022/03/24 02:47:37;;;;;;;32.00;21.27;;;9.00;90.10;;;;;;5010574;28;20217;-34
2022/03/24 02:50:09;;;;;;;33.77;22.20;;;9.00;90.10;;;;;;4993545;28;20380;-33
2022/03/24 02:52:36;;;;;;;29.80;22.40;;;9.00;90.10;;;;;;5003658;28;20731;-33
2022/03/24 02:55:05;;;;;;;35.70;22.40;;;8.90;90.10;;;;;;4994553;28;20242;-34
2022/03/24 02:57:35;;;;;;;31.10;21.47;;;8.90;90.20;;;;;;5019820;28;20300;-34
2022/03/24 03:00:06;;;;;;;36.27;21.93;;;8.80;90.30;;;;;;5001602;28;20221;-34
2022/03/24 03:02:37;;;;;;;34.30;22.20;;;8.80;90.10;;;;;;5002768;28;20600;-33
2022/03/24 03:05:05;;;;;;;32.50;22.63;;;8.80;90.10;;;;;;5026651;28;20217;-33
2022/03/24 03:07:33;;;;;;;32.80;22.47;;;8.70;90.10;;;;;;4995251;28;20774;-34
2022/03/24 03:10:03;;;;;;;32.40;21.53;;;8.80;90.20;;;;;;4991868;28;20204;-33
2022/03/24 03:12:32;;;;;;;33.73;22.33;;;8.70;90.10;;;;;;4994515;28;20312;-34
2022/03/24 03:14:59;;;;;;;33.73;21.90;;;8.70;90.10;;;;;;4994235;28;20201;-34
2022/03/24 03:17:28;;;;;;;35.40;21.93;;;8.70;90.10;;;;;;4992122;28;20213;-34
2022/03/24 03:19:56;;;;;;;33.30;21.67;;;8.70;90.10;;;;;;4988993;28;20476;-34
2022/03/24 03:22:23;;;;;;;32.20;22.03;;;8.60;90.00;;;;;;5003889;28;20205;-34
2022/03/24 03:24:51;;;;;;;32.53;20.63;;;8.60;90.10;;;;;;5006395;28;20205;-34
2022/03/24 03:27:18;;;;;;;33.93;21.93;;;8.60;90.10;;;;;;4999436;28;20704;-34
2022/03/24 03:29:48;;;;;;;30.67;21.23;;;8.50;90.10;;;;;;4995736;28;20202;-35
2022/03/24 03:32:15;;;;;;;30.07;21.50;;;8.50;90.10;;;;;;4999714;28;20198;-35
2022/03/24 03:34:45;;;;;;;30.87;21.63;;;8.50;90.10;;;;;;5001769;28;20758;-36
2022/03/24 03:37:14;;;;;;;29.30;21.23;;;8.40;90.10;;;;;;5004450;28;20731;-35
2022/03/24 03:39:41;;;;;;;34.47;21.47;;;8.40;90.10;;;;;;4995124;28;20230;-34
2022/03/24 03:42:13;;;;;;;31.90;22.50;;;8.40;90.10;;;;;;4993492;28;20207;-34
2022/03/24 03:44:41;;;;;;;28.37;21.27;;;8.40;90.20;;;;;;5004719;28;20291;-34
2022/03/24 03:47:09;;;;;;;34.43;22.83;;;8.40;90.20;;;;;;5004594;28;20283;-34
2022/03/24 03:49:38;;;;;;;31.67;21.30;;;8.30;90.20;;;;;;5001808;28;20289;-34
2022/03/24 03:52:26;;;;;;;33.33;20.87;;;8.30;90.10;;;;;;5003553;28;20353;-34
2022/03/24 03:54:55;;;;;;;31.43;21.40;;;8.30;90.10;;;;;;5001867;28;20280;-34
2022/03/24 03:57:25;;;;;;;35.30;22.40;;;8.20;90.10;;;;;;4991510;28;20259;-34
2022/03/24 03:59:52;;;;;;;34.57;22.40;;;8.20;90.50;;;;;;4995618;28;20234;-34
2022/03/24 04:02:22;;;;;;;34.83;21.87;;;8.20;90.20;;;;;;4996599;28;20221;-34
2022/03/24 04:04:51;;;;;;;37.07;22.80;;;8.20;90.20;;;;;;5004707;28;20212;-34
2022/03/24 04:07:18;;;;;;;33.47;22.50;;;8.10;90.20;;;;;;4999042;28;20208;-34
2022/03/24 04:09:48;;;;;;;32.20;22.30;;;8.10;90.20;;;;;;5002140;28;20201;-34
2022/03/24 04:12:15;;;;;;;32.03;21.83;;;8.10;90.20;;;;;;5018148;28;20237;-35
2022/03/24 04:14:42;;;;;;;32.33;22.17;;;8.10;90.30;;;;;;5008199;28;20221;-35
2022/03/24 04:17:12;;;;;;;33.73;22.07;;;8.00;90.20;;;;;;5000107;28;20548;-34
2022/03/24 04:19:40;;;;;;;32.70;21.10;;;8.00;90.30;;;;;;4997622;28;20225;-35
2022/03/24 04:22:07;;;;;;;33.40;22.33;;;8.00;90.30;;;;;;5000839;28;20585;-34
2022/03/24 04:24:34;;;;;;;31.33;22.67;;;7.90;90.20;;;;;;5008297;28;20216;-34
2022/03/24 04:27:05;;;;;;;34.53;21.40;;;7.90;90.30;;;;;;4999707;28;20206;-35
2022/03/24 04:29:32;;;;;;;32.50;21.43;;;7.90;90.50;;;;;;5002238;28;20217;-35
2022/03/24 04:32:00;;;;;;;35.50;22.37;;;7.90;90.20;;;;;;5000561;28;20264;-34
2022/03/24 04:34:29;;;;;;;30.07;21.40;;;7.90;90.30;;;;;;4996903;28;20225;-35
2022/03/24 04:36:56;;;;;;;31.93;21.47;;;7.80;90.20;;;;;;5002466;28;20206;-35
2022/03/24 04:39:29;;;;;;;32.37;21.90;;;7.80;90.30;;;;;;5008565;28;20681;-36
2022/03/24 04:41:57;;;;;;;34.93;21.60;;;7.80;90.40;;;;;;5002221;28;20247;-35
2022/03/24 04:44:31;;;;;;;37.33;20.80;;;7.80;90.30;;;;;;5010342;28;20210;-36
2022/03/24 04:46:59;;;;;;;30.70;21.37;;;7.80;90.40;;;;;;4994418;28;20305;-36
2022/03/24 04:49:29;;;;;;;32.57;21.57;;;7.70;90.30;;;;;;4998622;28;20695;-35
2022/03/24 04:51:59;;;;;;;34.63;21.87;;;7.70;90.30;;;;;;4999315;28;20202;-35
2022/03/24 04:54:26;;;;;;;34.83;21.57;;;7.70;90.30;;;;;;4994903;28;20230;-35
2022/03/24 04:56:53;;;;;;;34.33;20.80;;;7.70;90.30;;;;;;4996059;28;20765;-35
2022/03/24 04:59:25;;;;;;;30.97;20.13;;;7.60;90.30;;;;;;4996184;28;20203;-36
2022/03/24 05:01:53;;;;;;;32.10;22.13;;;7.60;90.40;;;;;;4999454;28;20691;-35
2022/03/24 05:04:21;;;;;;;31.50;21.43;;;7.60;90.40;;;;;;4994134;28;20356;-36
2022/03/24 05:06:56;;;;;;;34.27;20.57;;;7.60;90.40;;;;;;4992378;28;20217;-35
2022/03/24 05:09:23;;;;;;;34.97;22.07;;;7.60;90.40;;;;;;4995957;28;20199;-36
2022/03/24 05:11:51;;;;;;;31.70;21.50;;;7.50;90.60;;;;;;4998514;28;20210;-35
2022/03/24 05:14:18;;;;;;;33.07;21.80;;;7.50;90.50;;;;;;4992325;28;20210;-35
2022/03/24 05:16:50;;;;;;;32.13;21.40;;;7.50;90.40;;;;;;4996554;28;20297;-35
2022/03/24 05:19:21;;;;;;;31.70;21.60;;;7.50;90.50;;;;;;4997196;28;20657;-35
2022/03/24 05:21:49;;;;;;;31.97;22.63;;;7.40;90.40;;;;;;5003605;28;20210;-35
2022/03/24 05:24:16;;;;;;;33.20;22.77;;;7.50;90.30;;;;;;5001302;28;20218;-33
2022/03/24 05:26:48;;;;;;;32.60;21.83;;;7.40;90.40;;;;;;5000820;28;20231;-33
2022/03/24 05:29:16;;;;;;;31.23;21.83;;;7.40;90.40;;;;;;4999609;28;20212;-34
2022/03/24 05:31:44;;;;;;;33.60;22.33;;;7.40;90.40;;;;;;5003200;28;20201;-33
2022/03/24 05:34:14;;;;;;;33.57;21.60;;;7.40;90.50;;;;;;5020323;28;20218;-34
2022/03/24 05:36:43;;;;;;;32.23;22.43;;;7.40;90.40;;;;;;4996307;28;20201;-33
2022/03/24 05:39:15;;;;;;;33.90;22.83;;;7.30;90.50;;;;;;5000611;28;20205;-34
2022/03/24 05:41:44;;;;;;;37.47;21.83;;;7.30;90.50;;;;;;4992894;28;20460;-33
2022/03/24 05:44:11;;;;;;;30.67;21.70;;;7.30;90.50;;;;;;5005493;28;20212;-33
2022/03/24 05:46:47;;;;;;;32.67;22.83;;;7.30;90.50;;;;;;4998511;28;20198;-34
2022/03/24 05:49:18;;;;;;;34.60;22.67;;;7.30;90.60;;;;;;4998761;28;20201;-34
2022/03/24 05:51:46;;;;;;;37.53;22.23;;;7.30;90.50;;;;;;5004225;28;20263;-33
2022/03/24 05:54:16;;;;;;;42.30;24.03;;;7.20;90.50;;;;;;4997493;28;20241;-33
2022/03/24 05:56:47;;;;;;;38.17;23.37;;;7.20;90.60;;;;;;4997950;28;20539;-33
2022/03/24 05:59:18;;;;;;;34.43;22.73;;;7.20;90.60;;;;;;4999625;28;20214;-33
2022/03/24 06:01:50;;;;;;;36.90;22.50;;;7.20;90.50;;;;;;4994561;28;20222;-33
2022/03/24 06:04:19;;;;;;;31.97;22.77;;;7.20;90.60;;;;;;4995109;28;20695;-34
2022/03/24 06:06:53;;;;;;;36.87;23.00;;;7.20;90.60;;;;;;4999056;28;20248;-33
2022/03/24 06:09:24;;;;;;;35.00;21.80;;;7.20;90.60;;;;;;4997501;28;20222;-33
2022/03/24 06:11:55;;;;;;;36.33;23.17;;;7.20;90.70;;;;;;4990670;28;20225;-33
2022/03/24 06:14:25;;;;;;;34.27;22.47;;;7.30;90.60;;;;;;4990538;28;20210;-34
2022/03/24 06:16:55;;;;;;;32.23;22.43;;;7.30;90.60;;;;;;4989026;28;20206;-34
2022/03/24 06:19:22;;;;;;;36.20;24.00;;;7.30;90.70;;;;;;4994294;28;20309;-34
2022/03/24 06:21:49;;;;;;;33.33;23.27;;;7.30;90.70;;;;;;5000184;28;20225;-34
2022/03/24 06:24:19;;;;;;;32.90;22.37;;;7.30;91.00;;;;;;4996925;28;20233;-34
2022/03/24 06:26:51;;;;;;;37.17;23.80;;;7.30;90.70;;;;;;4996794;28;20214;-34
2022/03/24 06:29:22;;;;;;;40.80;23.20;;;7.30;90.70;;;;;;4994934;28;20315;-34
2022/03/24 06:31:49;;;;;;;36.40;23.43;;;7.30;90.70;;;;;;4996031;28;20208;-35
2022/03/24 06:34:17;;;;;;;37.07;23.37;;;7.30;90.70;;;;;;4994135;28;20218;-34
2022/03/24 06:36:47;;;;;;;35.17;23.80;;;7.30;90.80;;;;;;4996433;28;20640;-35
2022/03/24 06:39:16;;;;;;;32.07;22.17;;;7.40;90.80;;;;;;5000908;28;20232;-33
2022/03/24 06:41:46;;;;;;;36.80;22.87;;;7.40;90.80;;;;;;5004773;28;20705;-34
2022/03/24 06:44:19;;;;;;;38.00;24.40;;;7.40;90.80;;;;;;4994640;28;20350;-34
2022/03/24 06:46:48;;;;;;;35.77;23.10;;;7.40;90.80;;;;;;4995848;28;20201;-33
2022/03/24 06:49:16;;;;;;;34.27;23.40;;;7.50;90.70;;;;;;4996917;28;20280;-34
2022/03/24 06:51:46;;;;;;;34.70;22.43;;;7.50;90.90;;;;;;4997459;28;20583;-33
2022/03/24 06:54:16;;;;;;;37.20;22.90;;;7.50;90.90;;;;;;4992176;28;20616;-34
2022/03/24 06:56:51;;;;;;;38.47;23.83;;;7.50;90.80;;;;;;4997570;28;20217;-33
2022/03/24 06:59:18;;;;;;;37.60;24.50;;;7.50;90.90;;;;;;4988484;28;20205;-33
2022/03/24 07:01:50;;;;;;;38.10;23.77;;;7.60;91.00;;;;;;4992554;28;20232;-33
2022/03/24 07:04:20;;;;;;;45.73;24.33;;;7.60;91.00;;;;;;4991740;28;20644;-34
2022/03/24 07:06:50;;;;;;;45.00;24.00;;;7.60;91.00;;;;;;5000899;28;20684;-33
2022/03/24 07:09:17;;;;;;;34.87;22.67;;;7.70;91.00;;;;;;5007428;28;20205;-33
2022/03/24 07:11:47;;;;;;;38.27;24.23;;;7.70;91.10;;;;;;4998581;28;20225;-33
2022/03/24 07:14:14;;;;;;;37.77;23.20;;;7.80;91.10;;;;;;4998391;28;20201;-33
2022/03/24 07:16:44;;;;;;;36.60;24.17;;;7.80;91.20;;;;;;4991479;28;20214;-33
2022/03/24 07:19:12;;;;;;;38.77;23.97;;;7.80;91.20;;;;;;4990916;28;20219;-33
2022/03/24 07:21:41;;;;;;;36.63;23.83;;;7.90;91.20;;;;;;5012966;28;20707;-34
2022/03/24 07:24:11;;;;;;;38.73;23.80;;;8.00;91.20;;;;;;4993523;28;20268;-34
2022/03/24 07:26:39;;;;;;;37.80;24.20;;;8.00;91.20;;;;;;4990348;28;20267;-34
2022/03/24 07:29:10;;;;;;;43.90;24.13;;;8.10;91.30;;;;;;4989348;28;20211;-33
2022/03/24 07:31:41;;;;;;;36.40;24.13;;;8.10;91.30;;;;;;4998550;28;20253;-33
2022/03/24 07:34:11;;;;;;;38.27;24.90;;;8.10;91.30;;;;;;5008028;28;20208;-34
2022/03/24 07:36:44;;;;;;;36.93;24.10;;;8.20;91.50;;;;;;4998352;28;20263;-33
2022/03/24 07:39:15;;;;;;;39.33;24.70;;;8.30;91.50;;;;;;4998389;28;20209;-33
2022/03/24 07:41:45;;;;;;;40.30;26.20;;;8.30;91.50;;;;;;5004496;28;20225;-33
2022/03/24 07:44:19;;;;;;;42.57;25.63;;;8.40;91.50;;;;;;4995777;28;20288;-32
2022/03/24 07:46:51;;;;;;;38.50;25.07;;;8.40;91.60;;;;;;4997689;28;20287;-33
2022/03/24 07:49:21;;;;;;;40.67;25.47;;;8.50;91.60;;;;;;4999975;28;20316;-32
2022/03/24 07:51:53;;;;;;;37.77;25.30;;;8.60;91.60;;;;;;4999083;28;20229;-32
2022/03/24 07:55:00;;;;;;;39.47;26.20;;;8.60;91.70;;;;;;5000159;28;20257;-34
2022/03/24 07:57:31;;;;;;;42.33;26.53;;;8.70;91.80;;;;;;4988352;28;20228;-34
2022/03/24 08:00:08;;;;;;;38.97;26.43;;;8.80;91.80;;;;;;5000731;28;20240;-34
2022/03/24 08:02:43;;;;;;;37.13;25.60;;;8.80;91.90;;;;;;5017090;28;21158;-33
2022/03/24 08:05:10;;;;;;;41.03;25.27;;;8.90;92.00;;;;;;5005222;28;20605;-34
2022/03/24 08:07:37;;;;;;;38.10;26.50;;;9.00;92.00;;;;;;5005427;28;20293;-34
2022/03/24 08:10:13;;;;;;;38.90;26.37;;;9.10;92.00;;;;;;5001104;28;20198;-33
2022/03/24 08:12:42;;;;;;;36.27;26.03;;;9.10;92.10;;;;;;5002130;28;20208;-33
2022/03/24 08:15:12;;;;;;;41.23;27.13;;;9.20;92.20;;;;;;4994615;28;20218;-32
2022/03/24 08:17:39;;;;;;;40.40;25.80;;;9.30;92.20;;;;;;4999257;28;20763;-33
2022/03/24 08:20:08;;;;;;;36.13;24.83;;;9.30;92.20;;;;;;5005052;28;20715;-33
2022/03/24 08:22:37;;;;;;;34.17;24.57;;;9.50;92.30;;;;;;4999535;28;20230;-33
2022/03/24 08:25:08;;;;;;;38.57;27.03;;;9.50;92.30;;;;;;4990296;28;20205;-33
2022/03/24 08:27:37;;;;;;;41.67;27.53;;;9.60;92.40;;;;;;5000568;28;20280;-33
2022/03/24 08:30:08;;;;;;;39.20;26.73;;;9.70;92.40;;;;;;5003402;28;20658;-33
2022/03/24 08:32:37;;;;;;;43.70;27.07;;;9.80;92.50;;;;;;4998815;28;20672;-33
2022/03/24 08:35:08;;;;;;;41.97;28.00;;;9.90;92.50;;;;;;5004248;28;20210;-33
2022/03/24 08:37:35;;;;;;;40.07;26.43;;;9.90;92.50;;;;;;4992113;28;20317;-33
2022/03/24 08:40:04;;;;;;;43.20;28.03;;;10.00;92.10;;;;;;4988622;28;20257;-33
2022/03/24 08:42:35;;;;;;;42.77;27.80;;;10.10;92.20;;;;;;4993644;28;20218;-33
2022/03/24 08:45:06;;;;;;;41.67;28.43;;;10.20;92.20;;;;;;4992521;28;20267;-33
2022/03/24 08:47:37;;;;;;;39.70;25.90;;;10.30;92.30;;;;;;4997945;28;20221;-33
2022/03/24 08:50:07;;;;;;;40.17;26.13;;;10.40;92.30;;;;;;5002139;28;20238;-33
2022/03/24 08:52:37;;;;;;;40.17;27.77;;;10.50;92.40;;;;;;4992178;28;20210;-33
2022/03/24 08:55:08;;;;;;;39.77;27.80;;;10.60;92.40;;;;;;4992883;28;20233;-33
2022/03/24 08:57:38;;;;;;;39.73;27.90;;;10.70;92.80;;;;;;4998538;28;20198;-33
2022/03/24 09:00:13;;;;;;;40.07;29.10;;;10.70;92.50;;;;;;5014634;28;20268;-33
2022/03/24 09:02:48;;;;;;;41.80;28.53;;;10.90;92.70;;;;;;5005394;28;20229;-33
2022/03/24 09:05:20;;;;;;;43.20;30.00;;;10.90;92.60;;;;;;4999907;28;20197;-33
2022/03/24 09:07:49;;;;;;;41.97;28.67;;;11.00;92.70;;;;;;5009824;28;20749;-33
2022/03/24 09:10:16;;;;;;;44.73;29.00;;;11.10;92.70;;;;;;4996397;28;20569;-33
2022/03/24 09:12:50;;;;;;;47.23;31.43;;;11.20;92.80;;;;;;4991853;28;20441;-32
2022/03/24 09:15:19;;;;;;;46.83;31.83;;;11.30;93.00;;;;;;4996951;28;20209;-33
2022/03/24 09:17:49;;;;;;;49.07;32.47;;;11.40;93.00;;;;;;4995068;28;20244;-33
2022/03/24 09:20:23;;;;;;;45.10;30.40;;;11.50;93.10;;;;;;4995332;28;20362;-33
2022/03/24 09:22:58;;;;;;;45.33;31.93;;;11.60;93.20;;;;;;4990811;28;20752;-33
2022/03/24 09:25:28;;;;;;;44.93;30.57;;;11.70;93.20;;;;;;4996750;28;20596;-33
2022/03/24 09:27:55;;;;;;;47.93;32.60;;;11.80;93.20;;;;;;4994378;28;20222;-33
2022/03/24 09:30:27;;;;;;;52.33;32.97;;;11.90;93.30;;;;;;4996416;28;20208;-33
2022/03/24 09:32:55;;;;;;;59.30;31.60;;;12.00;93.40;;;;;;4989977;28;20244;-33
2022/03/24 09:35:22;;;;;;;54.00;32.03;;;12.10;93.40;;;;;;4992699;28;20609;-34
2022/03/24 09:37:51;;;;;;;54.03;33.93;;;12.20;93.50;;;;;;4994457;28;20208;-34
2022/03/24 09:40:21;;;;;;;56.60;36.43;;;12.30;93.50;;;;;;5004876;28;20564;-34
2022/03/24 09:42:48;;;;;;;71.63;39.30;;;12.40;93.50;;;;;;5002809;28;20287;-34
2022/03/24 09:45:16;;;;;;;52.87;35.20;;;12.50;93.50;;;;;;4996257;28;20209;-34
2022/03/24 09:47:48;;;;;;;59.83;39.97;;;12.50;93.50;;;;;;5004176;28;20291;-34
2022/03/24 09:50:16;;;;;;;61.57;38.53;;;12.60;93.40;;;;;;4999310;28;20234;-34
2022/03/24 09:52:43;;;;;;;58.30;38.40;;;12.70;93.40;;;;;;4983611;28;20958;-34
2022/03/24 09:55:17;;;;;;;69.13;40.83;;;12.90;93.50;;;;;;5000181;28;20250;-35
2022/03/24 09:57:48;;;;;;;63.43;39.10;;;13.00;93.60;;;;;;5000924;28;20655;-34
2022/03/24 10:00:38;;;;;;;59.03;38.37;;;13.10;93.60;;;;;;4993770;28;20474;-33
2022/03/24 10:03:22;;;;;;;56.67;37.13;;;13.30;93.70;;;;;;5005929;28;20233;-33
2022/03/24 10:06:04;;;;;;;52.97;36.57;;;13.40;93.80;;;;;;4999290;28;20229;-34
2022/03/24 10:08:32;;;;;;;55.70;36.47;;;13.50;93.80;;;;;;4991885;28;20218;-34
2022/03/24 10:11:08;;;;;;;56.37;36.73;;;13.60;93.90;;;;;;5004508;28;20221;-34
2022/03/24 10:13:44;;;;;;;57.97;37.13;;;13.70;93.90;;;;;;5006015;28;20652;-34
2022/03/24 10:16:32;;;;;;;58.10;37.97;;;13.80;94.00;;;;;;4994401;28;20267;-34
2022/03/24 10:19:03;;;;;;;60.33;40.63;;;13.90;94.00;;;;;;4997059;28;20229;-35
2022/03/24 10:21:34;;;;;;;61.57;40.13;;;14.00;94.00;;;;;;4993757;28;20651;-34
2022/03/24 10:24:13;;;;;;;63.17;41.17;;;14.00;94.00;;;;;;4998886;28;20580;-34
2022/03/24 10:26:44;;;;;;;67.47;42.77;;;14.10;94.10;;;;;;4977319;28;20197;-34
2022/03/24 10:29:17;;;;;;;79.57;46.87;;;14.20;94.30;;;;;;4999291;28;20305;-34
2022/03/24 10:31:50;;;;;;;74.40;45.20;;;14.30;94.00;;;;;;4995620;28;20208;-34
2022/03/24 10:34:31;;;;;;;65.85;41.72;;;14.40;94.10;;;;;;4985832;28;20225;-34
2022/03/24 10:37:12;;;;;;;66.93;42.90;;;14.50;94.30;;;;;;4995278;28;20351;-34
2022/03/24 10:39:58;;;;;;;69.43;43.13;;;14.60;94.30;;;;;;5005361;28;20217;-34
2022/03/24 10:42:28;;;;;;;60.15;39.22;;;14.70;94.20;;;;;;5001419;28;20315;-34
2022/03/24 10:45:20;;;;;;;58.85;37.50;;;14.90;94.50;;;;;;5001890;28;20315;-35
2022/03/24 10:47:56;;;;;;;49.33;33.50;;;14.90;94.40;;;;;;4999821;28;20200;-34
2022/03/24 10:50:40;;;;;;;54.03;35.33;;;15.00;94.40;;;;;;4995014;28;20273;-35
2022/03/24 10:53:10;;;;;;;77.20;36.13;;;15.10;94.50;;;;;;4987567;28;20297;-34
2022/03/24 10:55:44;;;;;;;67.93;36.10;;;15.20;94.40;;;;;;4995532;28;20230;-34
2022/03/24 10:58:20;;;;;;;53.10;34.05;;;15.30;94.40;;;;;;4997025;28;20723;-34
2022/03/24 11:00:51;;;;;;;49.05;31.83;;;15.30;94.20;;;;;;4998834;28;20569;-34
2022/03/24 11:03:19;;;;;;;50.08;33.70;;;15.40;94.40;;;;;;4989580;28;20230;-35
2022/03/24 11:05:50;;;;;;;42.95;30.05;;;15.40;94.10;;;;;;4997044;28;20576;-36
2022/03/24 11:08:19;;;;;;;94.93;39.20;;;15.40;94.30;;;;;;4994419;28;20226;-35
2022/03/24 11:10:54;;;;;;;54.58;31.20;;;15.50;94.30;;;;;;4995740;28;20210;-36
2022/03/24 11:13:30;;;;;;;52.28;34.25;;;15.60;94.10;;;;;;4976666;28;20218;-36
2022/03/24 11:16:01;;;;;;;48.85;32.42;;;15.60;93.70;;;;;;4997885;28;20634;-36
2022/03/24 11:18:28;;;;;;;48.33;32.67;;;15.60;94.00;;;;;;4996591;28;20229;-36
2022/03/24 11:21:04;;;;;;;45.80;28.83;;;15.60;93.90;;;;;;4989165;28;20202;-36
2022/03/24 11:23:39;;;;;;;40.55;27.92;;;15.70;94.10;;;;;;4999082;28;20197;-36
2022/03/24 11:26:10;;;;;;;44.22;30.40;;;15.80;94.30;;;;;;4990374;28;20320;-37
2022/03/24 11:28:41;;;;;;;41.75;29.55;;;15.80;94.20;;;;;;4998782;28;20677;-33
2022/03/24 11:31:15;;;;;;;42.67;29.27;;;15.90;94.10;;;;;;4986234;28;20202;-33
2022/03/24 11:33:44;;;;;;;39.10;27.48;;;15.90;94.00;;;;;;4987916;28;20743;-32
2022/03/24 11:36:14;;;;;;;39.67;28.20;;;16.00;94.00;;;;;;4987255;28;20313;-33
2022/03/24 11:38:46;;;;;;;37.90;25.85;;;16.00;93.90;;;;;;4992005;28;20217;-32
2022/03/24 11:41:21;;;;;;;39.28;27.70;;;16.00;94.00;;;;;;4997733;28;20216;-32
2022/03/24 11:43:55;;;;;;;40.45;27.75;;;16.10;93.60;;;;;;4982567;28;20224;-33
2022/03/24 11:46:40;;;;;;;36.42;25.10;;;16.10;93.80;;;;;;4995541;28;20193;-33
2022/03/24 11:49:18;;;;;;;32.95;22.92;;;16.10;93.70;;;;;;4990884;28;20210;-33
2022/03/24 11:51:48;;;;;;;30.83;21.45;;;16.20;93.80;;;;;;5003869;28;20609;-33
2022/03/24 11:54:27;;;;;;;28.73;20.55;;;16.20;94.00;;;;;;4980178;28;20268;-33
2022/03/24 11:57:25;;;;;;;29.33;20.45;;;16.30;94.40;;;;;;4973890;28;20198;-33
2022/03/24 12:00:14;;;;;;;31.67;23.90;;;16.40;94.10;;;;;;4994570;28;20781;-36
2022/03/24 12:02:49;;;;;;;49.55;26.73;;;16.40;94.00;;;;;;5005929;28;20263;-36
2022/03/24 12:05:19;;;;;;;53.03;28.17;;;16.50;94.10;;;;;;5006340;28;20292;-33
2022/03/24 12:07:47;;;;;;;41.92;27.15;;;16.50;94.10;;;;;;5006487;28;20232;-32
2022/03/24 12:10:31;;;;;;;45.95;31.73;;;16.50;94.10;;;;;;4988309;28;20221;-32
2022/03/24 12:13:25;;;;;;;48.10;34.25;;;16.50;94.00;;;;;;4988511;28;20197;-33
2022/03/24 12:16:12;;;;;;;50.17;34.22;;;16.60;93.70;;;;;;5006248;28;20300;-31
2022/03/24 12:18:46;;;;;;;53.15;35.83;;;16.60;93.80;;;;;;4987929;28;20547;-32
2022/03/24 12:21:27;;;;;;;50.53;33.17;;;16.60;93.30;;;;;;4990583;28;20673;-33
2022/03/24 12:24:19;;;;;;;44.72;31.67;;;16.60;93.70;;;;;;4997564;28;20202;-33
2022/03/24 12:26:55;;;;;;;46.40;31.77;;;16.70;93.90;;;;;;5009516;28;20214;-33
2022/03/24 12:29:24;;;;;;;43.08;31.85;;;16.80;93.60;;;;;;5005263;28;20665;-33
2022/03/24 12:31:58;;;;;;;56.25;32.30;;;16.80;94.00;;;;;;4989533;28;20238;-32
2022/03/24 12:34:54;;;;;;;50.42;32.90;;;16.90;94.10;;;;;;5002839;28;20226;-33
2022/03/24 12:37:29;;;;;;;45.15;32.25;;;17.00;94.10;;;;;;5008857;28;20569;-33
2022/03/24 12:40:08;;;;;;;41.22;30.08;;;17.10;94.20;;;;;;5008463;28;20568;-33
2022/03/24 12:42:49;;;;;;;46.22;32.38;;;17.10;94.20;;;;;;5008716;28;20226;-33
2022/03/24 12:45:37;;;;;;;47.15;32.40;;;17.20;94.10;;;;;;5006535;28;20209;-33
2022/03/24 12:48:40;;;;;;;50.00;33.72;;;17.20;92.90;;;;;;4989766;28;20305;-33
2022/03/24 12:51:22;;;;;;;44.55;31.83;;;17.20;93.60;;;;;;4988695;28;20261;-33
2022/03/24 12:54:00;;;;;;;35.15;25.75;;;17.20;93.80;;;;;;4988192;28;20300;-37
2022/03/24 12:56:32;;;;;;;45.35;30.77;;;17.30;94.00;;;;;;4989742;28;20293;-33